createdAt,value
2018-12-09T00:00:40.625Z,987.14
2018-12-09T00:01:50.578Z,987.07
2018-12-09T00:03:00.522Z,987.03
2018-12-09T00:04:10.211Z,987.01
2018-12-09T00:05:20.159Z,986.97
2018-12-09T00:06:29.851Z,986.95
2018-12-09T00:07:39.817Z,986.83
2018-12-09T00:08:49.759Z,986.84
2018-12-09T00:09:59.196Z,986.8
2018-12-09T00:11:09.157Z,986.68
2018-12-09T00:12:19.090Z,986.68
2018-12-09T00:13:29.029Z,986.66
2018-12-09T00:14:38.711Z,986.64
2018-12-09T00:15:48.390Z,986.59
2018-12-09T00:16:58.333Z,986.45
2018-12-09T00:18:08.028Z,986.49
2018-12-09T00:19:17.985Z,986.52
2018-12-09T00:20:27.769Z,986.48
2018-12-09T00:21:37.474Z,986.53
2018-12-09T00:22:47.231Z,986.41
2018-12-09T00:23:56.928Z,986.28
2018-12-09T00:25:06.869Z,986.31
2018-12-09T00:26:16.307Z,986.28
2018-12-09T00:27:25.987Z,986.21
2018-12-09T00:28:35.689Z,986.17
2018-12-09T00:29:45.494Z,986.21
2018-12-09T00:30:55.440Z,986.5
2018-12-09T00:32:05.128Z,986.27
2018-12-09T00:33:15.194Z,986.17
2018-12-09T00:34:25.392Z,986.05
2018-12-09T00:35:35.330Z,986.12
2018-12-09T00:36:45.274Z,986.03
2018-12-09T00:37:55.223Z,985.88
2018-12-09T00:39:05.143Z,985.89
2018-12-09T00:40:15.069Z,985.88
2018-12-09T00:41:24.767Z,985.9
2018-12-09T00:42:34.469Z,985.88
2018-12-09T00:43:51.423Z,985.83
2018-12-09T00:45:01.360Z,985.74
2018-12-09T00:46:11.053Z,985.79
2018-12-09T00:47:20.985Z,985.69
2018-12-09T00:48:30.653Z,985.66
2018-12-09T00:49:40.617Z,985.67
2018-12-09T00:50:50.547Z,985.69
2018-12-09T00:52:00.506Z,985.68
2018-12-09T00:53:10.453Z,985.58
2018-12-09T00:54:20.143Z,985.61
2018-12-09T00:55:29.959Z,985.57
2018-12-09T00:56:39.904Z,985.52
2018-12-09T00:57:49.591Z,985.47
2018-12-09T00:58:59.281Z,985.46
2018-12-09T01:00:08.963Z,985.43
2018-12-09T01:01:18.647Z,985.5
2018-12-09T01:02:28.585Z,985.49
2018-12-09T01:03:38.517Z,985.45
2018-12-09T01:04:48.464Z,985.37
2018-12-09T01:05:58.175Z,985.41
2018-12-09T01:07:07.875Z,985.41
2018-12-09T01:08:17.829Z,985.27
2018-12-09T01:09:27.517Z,985.24
2018-12-09T01:10:37.457Z,985.08
2018-12-09T01:11:47.409Z,985.21
2018-12-09T01:12:57.351Z,984.92
2018-12-09T01:14:07.049Z,985.09
2018-12-09T01:15:16.995Z,984.99
2018-12-09T01:16:26.681Z,984.95
2018-12-09T01:17:36.363Z,984.93
2018-12-09T01:18:46.066Z,984.86
2018-12-09T01:19:56.017Z,984.86
2018-12-09T01:21:05.959Z,984.98
2018-12-09T01:22:15.398Z,984.77
2018-12-09T01:23:25.104Z,984.64
2018-12-09T01:24:35.043Z,984.73
2018-12-09T01:25:44.750Z,984.76
2018-12-09T01:26:54.462Z,984.64
2018-12-09T01:28:04.169Z,984.57
2018-12-09T01:29:13.874Z,984.49
2018-12-09T01:30:23.582Z,984.53
2018-12-09T01:31:33.555Z,984.45
2018-12-09T01:32:42.752Z,984.34
2018-12-09T01:33:52.958Z,984.56
2018-12-09T01:35:03.295Z,984.45
2018-12-09T01:36:13.911Z,984.44
2018-12-09T01:37:24.309Z,984.28
2018-12-09T01:38:34.267Z,984.31
2018-12-09T01:39:44.246Z,984.23
2018-12-09T01:40:53.967Z,984.18
2018-12-09T01:42:03.689Z,984.14
2018-12-09T01:43:13.407Z,984.17
2018-12-09T01:44:23.364Z,984.09
2018-12-09T01:45:33.104Z,984.23
2018-12-09T01:46:43.172Z,984.1
2018-12-09T01:47:52.886Z,984.01
2018-12-09T01:49:02.345Z,983.94
2018-12-09T01:50:11.807Z,984.1
2018-12-09T01:51:21.788Z,983.93
2018-12-09T01:52:31.762Z,983.87
2018-12-09T01:53:41.734Z,983.86
2018-12-09T01:54:51.693Z,983.86
2018-12-09T01:56:01.645Z,983.82
2018-12-09T01:57:11.623Z,983.83
2018-12-09T01:58:21.567Z,983.89
2018-12-09T01:59:31.545Z,983.87
2018-12-09T02:00:42.095Z,983.79
2018-12-09T02:01:52.297Z,983.85
2018-12-09T02:03:02.428Z,983.82
2018-12-09T02:04:12.407Z,983.73
2018-12-09T02:05:22.122Z,983.6
2018-12-09T02:06:31.574Z,983.54
2018-12-09T02:07:41.547Z,983.61
2018-12-09T02:08:51.498Z,983.65
2018-12-09T02:10:01.479Z,983.52
2018-12-09T02:11:11.439Z,983.57
2018-12-09T02:12:21.157Z,983.6
2018-12-09T02:13:30.865Z,983.45
2018-12-09T02:14:40.594Z,983.55
2018-12-09T02:15:50.564Z,983.51
2018-12-09T02:17:00.027Z,983.51
2018-12-09T02:18:09.752Z,983.49
2018-12-09T02:19:19.453Z,983.37
2018-12-09T02:20:29.421Z,983.53
2018-12-09T02:21:39.388Z,983.36
2018-12-09T02:22:49.365Z,983.38
2018-12-09T02:23:59.477Z,983.27
2018-12-09T02:25:10.110Z,983.27
2018-12-09T02:26:20.405Z,983.37
2018-12-09T02:27:30.630Z,983.31
2018-12-09T02:28:40.600Z,983.3
2018-12-09T02:29:50.600Z,983.29
2018-12-09T02:31:00.315Z,983.23
2018-12-09T02:32:10.309Z,983.37
2018-12-09T02:33:20.041Z,983.32
2018-12-09T02:34:29.743Z,983.24
2018-12-09T02:35:39.469Z,983.16
2018-12-09T02:36:49.459Z,983.17
2018-12-09T02:37:59.182Z,983.07
2018-12-09T02:39:08.885Z,983.06
2018-12-09T02:40:18.851Z,982.99
2018-12-09T02:41:28.820Z,982.96
2018-12-09T02:42:38.521Z,983.03
2018-12-09T02:43:48.479Z,982.98
2018-12-09T02:44:57.951Z,982.92
2018-12-09T02:46:07.924Z,982.91
2018-12-09T02:47:17.403Z,983
2018-12-09T02:48:27.746Z,982.92
2018-12-09T02:49:38.320Z,982.94
2018-12-09T02:50:48.831Z,982.79
2018-12-09T02:51:58.870Z,982.83
2018-12-09T02:53:08.329Z,982.86
2018-12-09T02:54:18.302Z,982.74
2018-12-09T02:55:27.790Z,982.78
2018-12-09T02:56:37.028Z,982.9
2018-12-09T02:57:46.792Z,982.65
2018-12-09T02:58:56.528Z,982.7
2018-12-09T03:00:06.252Z,982.59
2018-12-09T03:01:16.222Z,982.57
2018-12-09T03:02:26.195Z,982.62
2018-12-09T03:03:36.152Z,982.62
2018-12-09T03:04:45.877Z,982.65
2018-12-09T03:05:55.844Z,982.55
2018-12-09T03:07:05.808Z,982.61
2018-12-09T03:08:15.781Z,982.57
2018-12-09T03:09:25.544Z,982.5
2018-12-09T03:10:35.274Z,982.54
2018-12-09T03:11:45.006Z,982.62
2018-12-09T03:12:54.966Z,982.54
2018-12-09T03:14:05.316Z,982.44
2018-12-09T03:15:15.664Z,982.51
2018-12-09T03:16:26.374Z,982.51
2018-12-09T03:17:36.606Z,982.52
2018-12-09T03:18:46.702Z,982.54
2018-12-09T03:19:56.655Z,982.53
2018-12-09T03:21:06.615Z,982.52
2018-12-09T03:22:16.566Z,982.48
2018-12-09T03:23:26.553Z,982.47
2018-12-09T03:24:36.525Z,982.49
2018-12-09T03:25:46.517Z,982.41
2018-12-09T03:26:56.230Z,982.47
2018-12-09T03:28:05.959Z,982.47
2018-12-09T03:29:15.683Z,982.47
2018-12-09T03:30:25.657Z,982.36
2018-12-09T03:31:35.402Z,982.4
2018-12-09T03:32:45.414Z,982.38
2018-12-09T03:33:55.144Z,982.42
2018-12-09T03:35:05.118Z,982.35
2018-12-09T03:36:14.860Z,982.46
2018-12-09T03:37:24.577Z,982.37
2018-12-09T03:38:34.288Z,982.3
2018-12-09T03:39:44.519Z,982.26
2018-12-09T03:40:55.232Z,982.24
2018-12-09T03:42:05.591Z,982.17
2018-12-09T03:43:15.629Z,982.21
2018-12-09T03:44:25.579Z,982.24
2018-12-09T03:45:35.668Z,982.22
2018-12-09T03:46:46.561Z,982.22
2018-12-09T03:47:56.519Z,982.22
2018-12-09T03:49:06.495Z,982.14
2018-12-09T03:50:16.467Z,982.32
2018-12-09T03:51:26.185Z,982.17
2018-12-09T03:52:35.891Z,982.21
2018-12-09T03:53:45.857Z,982.17
2018-12-09T03:54:55.583Z,982.17
2018-12-09T03:56:05.328Z,982.16
2018-12-09T03:57:15.317Z,982.07
2018-12-09T03:58:25.036Z,982.1
2018-12-09T03:59:35.095Z,982.18
2018-12-09T04:00:45.060Z,982.02
2018-12-09T04:01:54.788Z,982.11
2018-12-09T04:03:04.762Z,982.01
2018-12-09T04:04:14.528Z,982.05
2018-12-09T04:05:24.486Z,982.01
2018-12-09T04:06:34.460Z,982.19
2018-12-09T04:07:45.105Z,982.05
2018-12-09T04:08:55.675Z,982.14
2018-12-09T04:10:05.939Z,982.13
2018-12-09T04:11:16.227Z,982
2018-12-09T04:12:26.212Z,982.13
2018-12-09T04:13:36.182Z,982.02
2018-12-09T04:14:45.661Z,982.05
2018-12-09T04:15:55.639Z,981.99
2018-12-09T04:17:05.611Z,981.89
2018-12-09T04:18:15.589Z,982.09
2018-12-09T04:19:25.335Z,982.01
2018-12-09T04:20:35.045Z,982.02
2018-12-09T04:21:45.018Z,981.98
2018-12-09T04:22:54.489Z,982.05
2018-12-09T04:24:03.977Z,981.84
2018-12-09T04:25:13.995Z,982.16
2018-12-09T04:26:23.964Z,982.12
2018-12-09T04:27:34.024Z,981.86
2018-12-09T04:28:44.038Z,982.01
2018-12-09T04:29:53.746Z,981.95
2018-12-09T04:31:03.516Z,981.84
2018-12-09T04:32:12.977Z,982.07
2018-12-09T04:33:22.944Z,981.89
2018-12-09T04:34:33.169Z,982.11
2018-12-09T04:35:43.593Z,982.07
2018-12-09T04:36:53.967Z,981.95
2018-12-09T04:38:04.097Z,981.88
2018-12-09T04:39:14.033Z,981.86
2018-12-09T04:40:23.791Z,981.79
2018-12-09T04:41:33.757Z,981.92
2018-12-09T04:42:43.464Z,981.89
2018-12-09T04:43:53.423Z,981.93
2018-12-09T04:45:03.164Z,981.89
2018-12-09T04:46:13.117Z,982.03
2018-12-09T04:47:23.085Z,981.99
2018-12-09T04:48:33.057Z,982.01
2018-12-09T04:49:43.019Z,981.88
2018-12-09T04:50:52.994Z,981.7
2018-12-09T04:52:02.969Z,981.91
2018-12-09T04:53:12.935Z,981.88
2018-12-09T04:54:22.903Z,981.91
2018-12-09T04:55:32.625Z,981.83
2018-12-09T04:56:42.365Z,981.88
2018-12-09T04:57:52.323Z,981.93
2018-12-09T04:59:02.027Z,982.01
2018-12-09T05:00:11.746Z,981.93
2018-12-09T05:01:22.017Z,982.05
2018-12-09T05:02:32.505Z,982.01
2018-12-09T05:03:42.640Z,981.99
2018-12-09T05:04:53.149Z,982.15
2018-12-09T05:06:03.149Z,982.23
2018-12-09T05:07:13.106Z,982
2018-12-09T05:08:23.071Z,981.98
2018-12-09T05:09:33.133Z,981.99
2018-12-09T05:10:42.858Z,982.16
2018-12-09T05:11:52.847Z,982.2
2018-12-09T05:13:02.042Z,981.79
2018-12-09T05:14:12.010Z,981.96
2018-12-09T05:15:21.758Z,982.17
2018-12-09T05:16:31.717Z,981.98
2018-12-09T05:17:41.724Z,982.12
2018-12-09T05:18:51.424Z,982.15
2018-12-09T05:20:01.144Z,982.01
2018-12-09T05:21:11.093Z,982.09
2018-12-09T05:22:21.057Z,982.28
2018-12-09T05:23:31.019Z,982.34
2018-12-09T05:24:40.742Z,982.19
2018-12-09T05:25:50.448Z,981.98
2018-12-09T05:27:00.176Z,982.29
2018-12-09T05:28:09.913Z,982.23
2018-12-09T05:29:19.630Z,982.23
2018-12-09T05:30:29.992Z,982.43
2018-12-09T05:31:40.487Z,982.35
2018-12-09T05:32:51.088Z,982.39
2018-12-09T05:34:01.640Z,982.37
2018-12-09T05:35:11.514Z,982.21
2018-12-09T05:36:21.490Z,982.27
2018-12-09T05:37:31.456Z,982.4
2018-12-09T05:38:41.418Z,982.35
2018-12-09T05:39:51.387Z,982.38
2018-12-09T05:41:01.114Z,982.35
2018-12-09T05:42:11.079Z,982.33
2018-12-09T05:43:20.807Z,982.42
2018-12-09T05:44:30.987Z,982.28
2018-12-09T05:45:40.286Z,982.32
2018-12-09T05:46:50.008Z,982.39
2018-12-09T05:47:59.728Z,982.51
2018-12-09T05:49:09.682Z,982.63
2018-12-09T05:50:19.629Z,982.44
2018-12-09T05:51:29.091Z,982.46
2018-12-09T05:52:39.060Z,982.39
2018-12-09T05:53:48.787Z,982.44
2018-12-09T05:54:58.505Z,982.44
2018-12-09T05:56:08.468Z,982.48
2018-12-09T05:57:17.948Z,982.45
2018-12-09T05:58:27.658Z,982.57
2018-12-09T05:59:37.909Z,982.3
2018-12-09T06:00:48.475Z,982.53
2018-12-09T06:01:58.866Z,982.56
2018-12-09T06:03:09.046Z,982.5
2018-12-09T06:04:19.173Z,982.58
2018-12-09T06:05:28.899Z,982.56
2018-12-09T06:06:40.251Z,982.31
2018-12-09T06:07:49.578Z,982.61
2018-12-09T06:08:59.565Z,982.45
2018-12-09T06:10:09.285Z,982.56
2018-12-09T06:11:19.248Z,982.4
2018-12-09T06:12:29.217Z,982.46
2018-12-09T06:13:39.187Z,982.47
2018-12-09T06:14:48.895Z,982.71
2018-12-09T06:15:58.611Z,982.55
2018-12-09T06:17:08.589Z,982.46
2018-12-09T06:18:18.314Z,982.41
2018-12-09T06:19:28.293Z,982.55
2018-12-09T06:20:38.237Z,982.5
2018-12-09T06:21:48.222Z,982.58
2018-12-09T06:22:57.944Z,982.71
2018-12-09T06:24:07.655Z,982.71
2018-12-09T06:25:17.356Z,982.68
2018-12-09T06:26:27.221Z,982.6
2018-12-09T06:27:36.933Z,982.56
2018-12-09T06:28:47.843Z,983
2018-12-09T06:29:58.091Z,982.67
2018-12-09T06:31:08.393Z,982.82
2018-12-09T06:32:18.774Z,982.8
2018-12-09T06:33:28.939Z,982.77
2018-12-09T06:34:38.701Z,982.79
2018-12-09T06:35:48.688Z,982.96
2018-12-09T06:36:58.414Z,982.8
2018-12-09T06:38:08.223Z,982.83
2018-12-09T06:39:18.193Z,982.84
2018-12-09T06:40:28.163Z,982.89
2018-12-09T06:41:37.875Z,983.11
2018-12-09T06:42:47.838Z,982.83
2018-12-09T06:43:57.799Z,983.18
2018-12-09T06:45:07.514Z,982.84
2018-12-09T06:46:17.227Z,982.83
2018-12-09T06:47:26.933Z,982.91
2018-12-09T06:48:36.644Z,982.99
2018-12-09T06:49:46.623Z,982.81
2018-12-09T06:50:56.597Z,983.04
2018-12-09T06:52:06.049Z,983.13
2018-12-09T06:53:16.033Z,983.03
2018-12-09T06:54:26.011Z,983.13
2018-12-09T06:55:35.969Z,983.04
2018-12-09T06:56:45.933Z,983.13
2018-12-09T06:57:55.647Z,983.08
2018-12-09T06:59:05.680Z,983.07
2018-12-09T07:00:15.971Z,983.16
2018-12-09T07:01:26.356Z,983.24
2018-12-09T07:02:38.675Z,983.26
2018-12-09T07:03:48.619Z,983.31
2018-12-09T07:04:58.341Z,983.2
2018-12-09T07:06:08.331Z,983.31
2018-12-09T07:07:18.058Z,982.77
2018-12-09T07:08:28.180Z,983.37
2018-12-09T07:09:38.158Z,983.38
2018-12-09T07:10:48.158Z,983.29
2018-12-09T07:11:57.872Z,983.39
2018-12-09T07:13:07.842Z,983.46
2018-12-09T07:14:17.547Z,983.51
2018-12-09T07:15:27.505Z,983.49
2018-12-09T07:16:37.227Z,983.47
2018-12-09T07:17:47.289Z,983.53
2018-12-09T07:18:58.953Z,983.52
2018-12-09T07:20:08.439Z,983.88
2018-12-09T07:21:18.399Z,983.66
2018-12-09T07:22:28.135Z,983.71
2018-12-09T07:23:38.098Z,983.66
2018-12-09T07:24:48.073Z,983.74
2018-12-09T07:25:57.889Z,983.67
2018-12-09T07:27:07.620Z,983.81
2018-12-09T07:28:17.581Z,984.04
2018-12-09T07:29:27.654Z,983.89
2018-12-09T07:30:37.651Z,983.98
2018-12-09T07:31:48.099Z,983.9
2018-12-09T07:32:58.081Z,983.96
2018-12-09T07:34:08.070Z,984.13
2018-12-09T07:35:17.976Z,984
2018-12-09T07:36:27.977Z,984.14
2018-12-09T07:37:37.707Z,984.03
2018-12-09T07:38:47.665Z,984.1
2018-12-09T07:39:57.629Z,984.15
2018-12-09T07:41:06.853Z,984.07
2018-12-09T07:42:16.292Z,984.16
2018-12-09T07:43:26.263Z,984.17
2018-12-09T07:44:36.227Z,984.07
2018-12-09T07:45:46.205Z,984.18
2018-12-09T07:46:56.163Z,984.17
2018-12-09T07:48:06.120Z,984.29
2018-12-09T07:49:15.851Z,984.38
2018-12-09T07:50:25.821Z,984.3
2018-12-09T07:51:35.792Z,984.25
2018-12-09T07:52:46.384Z,984.36
2018-12-09T07:53:56.138Z,984.39
2018-12-09T07:55:06.073Z,984.39
2018-12-09T07:56:15.518Z,984.34
2018-12-09T07:57:25.467Z,984.34
2018-12-09T07:58:35.156Z,984.47
2018-12-09T07:59:44.845Z,984.4
2018-12-09T08:00:54.774Z,984.52
2018-12-09T08:02:04.840Z,984.44
2018-12-09T08:03:14.784Z,984.52
2018-12-09T08:04:24.571Z,984.47
2018-12-09T08:05:34.511Z,984.53
2018-12-09T08:06:44.455Z,984.52
2018-12-09T08:07:54.394Z,984.49
2018-12-09T08:09:04.325Z,984.56
2018-12-09T08:10:14.268Z,984.58
2018-12-09T08:11:24.330Z,984.57
2018-12-09T08:12:34.268Z,984.62
2018-12-09T08:13:44.219Z,984.67
2018-12-09T08:14:54.160Z,984.6
2018-12-09T08:16:04.090Z,984.65
2018-12-09T08:17:13.846Z,984.65
2018-12-09T08:18:23.561Z,984.7
2018-12-09T08:19:33.502Z,984.69
2018-12-09T08:20:42.940Z,984.76
2018-12-09T08:21:52.890Z,984.76
2018-12-09T08:23:02.847Z,984.8
2018-12-09T08:24:12.796Z,984.8
2018-12-09T08:25:22.757Z,984.84
2018-12-09T08:26:32.696Z,984.88
2018-12-09T08:27:42.639Z,984.9
2018-12-09T08:28:52.591Z,984.9
2018-12-09T08:30:02.282Z,984.86
2018-12-09T08:31:12.233Z,984.92
2018-12-09T08:32:21.915Z,984.88
2018-12-09T08:33:31.599Z,985.07
2018-12-09T08:34:41.580Z,985.1
2018-12-09T08:35:51.267Z,985
2018-12-09T08:37:01.211Z,985.04
2018-12-09T08:38:11.155Z,985.11
2018-12-09T08:39:20.859Z,985.1
2018-12-09T08:40:30.547Z,985.15
2018-12-09T08:41:40.479Z,984.95
2018-12-09T08:42:50.420Z,985.27
2018-12-09T08:44:00.101Z,985.2
2018-12-09T08:45:09.791Z,985.31
2018-12-09T08:46:19.839Z,985.15
2018-12-09T08:47:29.788Z,985.14
2018-12-09T08:48:39.721Z,985.47
2018-12-09T08:49:49.433Z,985.18
2018-12-09T08:50:59.459Z,985.41
2018-12-09T08:52:09.408Z,985.33
2018-12-09T08:53:18.845Z,985.38
2018-12-09T08:54:28.545Z,985.41
2018-12-09T08:55:38.257Z,985.4
2018-12-09T08:56:48.194Z,985.46
2018-12-09T08:57:58.150Z,985.52
2018-12-09T08:59:07.834Z,985.47
2018-12-09T09:00:17.027Z,985.48
2018-12-09T09:01:26.724Z,985.42
2018-12-09T09:02:36.230Z,985.52
2018-12-09T09:03:46.196Z,985.53
2018-12-09T09:04:56.148Z,985.54
2018-12-09T09:06:05.857Z,985.6
2018-12-09T09:07:15.553Z,985.57
2018-12-09T09:08:25.501Z,985.74
2018-12-09T09:09:35.523Z,985.7
2018-12-09T09:10:45.465Z,985.66
2018-12-09T09:11:55.152Z,985.67
2018-12-09T09:13:05.096Z,985.68
2018-12-09T09:14:15.024Z,985.7
2018-12-09T09:15:24.952Z,985.69
2018-12-09T09:16:34.897Z,985.72
2018-12-09T09:17:44.697Z,985.78
2018-12-09T09:18:54.636Z,985.83
2018-12-09T09:20:04.377Z,985.85
2018-12-09T09:21:14.071Z,985.74
2018-12-09T09:22:24.026Z,985.86
2018-12-09T09:23:33.974Z,985.81
2018-12-09T09:24:43.662Z,985.92
2018-12-09T09:25:53.613Z,985.87
2018-12-09T09:27:03.424Z,985.87
2018-12-09T09:28:13.123Z,985.91
2018-12-09T09:29:23.062Z,985.99
2018-12-09T09:30:32.506Z,985.86
2018-12-09T09:31:42.214Z,985.97
2018-12-09T09:32:51.909Z,985.92
2018-12-09T09:34:01.652Z,985.9
2018-12-09T09:35:11.617Z,986
2018-12-09T09:36:21.563Z,985.93
2018-12-09T09:37:31.504Z,986.06
2018-12-09T09:38:41.468Z,986.03
2018-12-09T09:39:51.407Z,986.08
2018-12-09T09:41:01.355Z,986.03
2018-12-09T09:42:11.286Z,986.06
2018-12-09T09:43:20.990Z,986.11
2018-12-09T09:44:30.935Z,986.18
2018-12-09T09:45:41.605Z,985.99
2018-12-09T09:46:51.307Z,986.15
2018-12-09T09:48:01.000Z,986.11
2018-12-09T09:49:10.679Z,986.12
2018-12-09T09:50:20.380Z,986.13
2018-12-09T09:51:30.354Z,986.14
2018-12-09T09:52:40.051Z,986.17
2018-12-09T09:53:49.958Z,986.12
2018-12-09T09:54:59.642Z,986.16
2018-12-09T09:56:09.444Z,986.16
2018-12-09T09:57:19.410Z,986.19
2018-12-09T09:58:29.121Z,986.27
2018-12-09T09:59:38.811Z,986.21
2018-12-09T10:00:48.737Z,986.15
2018-12-09T10:01:58.431Z,986.19
2018-12-09T10:03:08.380Z,986.32
2018-12-09T10:04:26.246Z,986.12
2018-12-09T10:05:36.198Z,986.13
2018-12-09T10:06:45.878Z,986.28
2018-12-09T10:07:55.813Z,986.25
2018-12-09T10:09:05.494Z,986.26
2018-12-09T10:10:14.952Z,986.18
2018-12-09T10:11:24.892Z,986.26
2018-12-09T10:12:34.837Z,986.26
2018-12-09T10:13:44.548Z,986.28
2018-12-09T10:14:53.991Z,986.28
2018-12-09T10:16:03.929Z,986.32
2018-12-09T10:17:13.895Z,986.3
2018-12-09T10:18:23.840Z,986.24
2018-12-09T10:19:33.538Z,986.18
2018-12-09T10:20:43.226Z,986.27
2018-12-09T10:21:52.675Z,986.33
2018-12-09T10:23:02.619Z,986.23
2018-12-09T10:24:12.567Z,986.4
2018-12-09T10:25:22.277Z,986.39
2018-12-09T10:26:36.340Z,986.29
2018-12-09T10:27:46.358Z,986.36
2018-12-09T10:28:56.310Z,986.34
2018-12-09T10:30:06.248Z,986.24
2018-12-09T10:31:15.956Z,986.31
2018-12-09T10:32:25.896Z,986.49
2018-12-09T10:33:35.846Z,986.43
2018-12-09T10:34:45.809Z,986.37
2018-12-09T10:35:55.764Z,986.5
2018-12-09T10:37:05.696Z,986.42
2018-12-09T10:38:15.633Z,986.53
2018-12-09T10:39:25.340Z,986.52
2018-12-09T10:40:35.292Z,986.36
2018-12-09T10:41:44.989Z,986.44
2018-12-09T10:42:54.943Z,986.34
2018-12-09T10:44:04.947Z,986.39
2018-12-09T10:45:14.693Z,986.37
2018-12-09T10:46:24.654Z,986.48
2018-12-09T10:47:34.625Z,986.41
2018-12-09T10:48:44.616Z,986.49
2018-12-09T10:49:54.313Z,986.56
2018-12-09T10:51:04.378Z,986.48
2018-12-09T10:52:14.068Z,986.55
2018-12-09T10:53:23.791Z,986.47
2018-12-09T10:54:33.484Z,986.48
2018-12-09T10:55:43.455Z,986.52
2018-12-09T10:56:53.472Z,986.49
2018-12-09T10:58:03.185Z,986.59
2018-12-09T10:59:13.122Z,986.55
2018-12-09T11:00:22.558Z,986.57
2018-12-09T11:01:32.505Z,986.47
2018-12-09T11:02:42.196Z,986.5
2018-12-09T11:03:52.160Z,986.48
2018-12-09T11:05:02.112Z,986.48
2018-12-09T11:06:12.079Z,986.5
2018-12-09T11:07:22.044Z,986.58
2018-12-09T11:08:32.002Z,986.74
2018-12-09T11:09:41.938Z,986.57
2018-12-09T11:10:51.656Z,986.61
2018-12-09T11:12:01.359Z,986.77
2018-12-09T11:13:11.040Z,986.65
2018-12-09T11:14:20.976Z,986.7
2018-12-09T11:15:30.746Z,986.69
2018-12-09T11:16:40.433Z,986.78
2018-12-09T11:17:50.380Z,986.69
2018-12-09T11:19:00.070Z,986.79
2018-12-09T11:20:10.018Z,986.65
2018-12-09T11:21:19.705Z,986.73
2018-12-09T11:22:38.107Z,986.67
2018-12-09T11:23:48.077Z,986.64
2018-12-09T11:24:58.004Z,986.72
2018-12-09T11:26:07.968Z,986.7
2018-12-09T11:27:17.906Z,986.71
2018-12-09T11:28:28.062Z,986.67
2018-12-09T11:29:37.768Z,986.68
2018-12-09T11:30:47.457Z,986.65
2018-12-09T11:31:57.410Z,986.7
2018-12-09T11:33:07.168Z,986.62
2018-12-09T11:34:17.109Z,986.69
2018-12-09T11:35:26.905Z,986.65
2018-12-09T11:36:36.863Z,986.66
2018-12-09T11:37:46.799Z,986.72
2018-12-09T11:38:56.765Z,986.66
2018-12-09T11:40:06.712Z,986.83
2018-12-09T11:41:16.415Z,986.64
2018-12-09T11:42:25.881Z,986.71
2018-12-09T11:43:35.823Z,986.7
2018-12-09T11:44:45.779Z,986.67
2018-12-09T11:45:55.729Z,986.68
2018-12-09T11:47:06.329Z,986.73
2018-12-09T11:48:16.283Z,986.68
2018-12-09T11:49:26.237Z,986.58
2018-12-09T11:50:35.941Z,986.59
2018-12-09T11:51:45.645Z,986.6
2018-12-09T11:52:55.097Z,986.62
2018-12-09T11:54:04.794Z,986.63
2018-12-09T11:55:14.762Z,986.68
2018-12-09T11:56:24.706Z,986.65
2018-12-09T11:57:34.423Z,986.67
2018-12-09T11:58:44.117Z,986.67
2018-12-09T11:59:53.807Z,986.68
2018-12-09T12:01:03.255Z,986.68
2018-12-09T12:02:19.838Z,986.72
2018-12-09T12:03:30.052Z,986.76
2018-12-09T12:04:39.992Z,986.78
2018-12-09T12:05:49.935Z,986.73
2018-12-09T12:06:59.883Z,986.75
2018-12-09T12:08:09.822Z,986.76
2018-12-09T12:09:19.521Z,986.78
2018-12-09T12:10:29.470Z,986.7
2018-12-09T12:11:39.263Z,986.7
2018-12-09T12:12:48.963Z,986.72
2018-12-09T12:13:59.010Z,986.87
2018-12-09T12:15:08.949Z,986.7
2018-12-09T12:16:18.666Z,986.68
2018-12-09T12:17:28.622Z,986.73
2018-12-09T12:18:38.335Z,986.7
2018-12-09T12:19:48.301Z,986.79
2018-12-09T12:20:58.284Z,986.78
2018-12-09T12:22:07.982Z,986.89
2018-12-09T12:23:17.920Z,986.86
2018-12-09T12:24:27.867Z,986.85
2018-12-09T12:25:37.819Z,986.98
2018-12-09T12:26:47.765Z,986.87
2018-12-09T12:27:57.471Z,986.89
2018-12-09T12:29:07.417Z,986.87
2018-12-09T12:30:17.486Z,986.87
2018-12-09T12:31:29.078Z,986.91
2018-12-09T12:32:38.780Z,986.94
2018-12-09T12:33:48.491Z,986.9
2018-12-09T12:34:58.441Z,986.92
2018-12-09T12:36:08.399Z,986.9
2018-12-09T12:37:18.089Z,986.96
2018-12-09T12:38:28.035Z,986.89
2018-12-09T12:39:37.461Z,987.04
2018-12-09T12:40:46.930Z,987.01
2018-12-09T12:41:56.455Z,987.02
2018-12-09T12:43:06.153Z,986.91
2018-12-09T12:44:15.843Z,987.02
2018-12-09T12:45:25.785Z,987.02
2018-12-09T12:46:35.731Z,987.18
2018-12-09T12:47:45.803Z,986.94
2018-12-09T12:48:57.588Z,987.03
2018-12-09T12:50:07.535Z,987.11
2018-12-09T12:51:17.468Z,987.07
2018-12-09T12:52:27.169Z,987.17
2018-12-09T12:53:36.863Z,987.11
2018-12-09T12:54:46.556Z,987.1
2018-12-09T12:55:56.603Z,987.12
2018-12-09T12:57:06.560Z,987.12
2018-12-09T12:58:16.250Z,987.11
2018-12-09T12:59:26.308Z,987.04
2018-12-09T13:00:36.015Z,987.05
2018-12-09T13:01:45.720Z,987.02
2018-12-09T13:02:55.161Z,987.08
2018-12-09T13:04:05.103Z,987.09
2018-12-09T13:05:14.563Z,987.02
2018-12-09T13:06:24.519Z,987.13
2018-12-09T13:07:34.466Z,987.21
2018-12-09T13:08:44.170Z,987.18
2018-12-09T13:09:54.114Z,987.13
2018-12-09T13:11:04.062Z,987.17
2018-12-09T13:12:14.023Z,987.19
2018-12-09T13:13:23.472Z,987.24
2018-12-09T13:14:33.178Z,987.29
2018-12-09T13:15:43.134Z,987.24
2018-12-09T13:16:52.820Z,987.24
2018-12-09T13:18:02.756Z,987.27
2018-12-09T13:19:12.711Z,987.26
2018-12-09T13:20:22.665Z,987.27
2018-12-09T13:21:32.630Z,987.39
2018-12-09T13:22:42.325Z,987.28
2018-12-09T13:23:52.260Z,987.35
2018-12-09T13:25:02.275Z,987.35
2018-12-09T13:26:12.214Z,987.39
2018-12-09T13:27:21.904Z,987.46
2018-12-09T13:28:31.589Z,987.41
2018-12-09T13:29:41.302Z,987.51
2018-12-09T13:30:51.243Z,987.46
2018-12-09T13:32:00.686Z,987.51
2018-12-09T13:33:10.634Z,987.57
2018-12-09T13:34:20.326Z,987.55
2018-12-09T13:35:30.029Z,987.64
2018-12-09T13:36:40.049Z,987.59
2018-12-09T13:37:49.735Z,987.59
2018-12-09T13:38:59.683Z,987.72
2018-12-09T13:40:09.620Z,987.72
2018-12-09T13:41:19.315Z,987.71
2018-12-09T13:42:29.258Z,987.75
2018-12-09T13:43:39.209Z,987.79
2018-12-09T13:44:49.155Z,987.78
2018-12-09T13:45:59.104Z,987.78
2018-12-09T13:47:09.071Z,987.81
2018-12-09T13:48:19.087Z,987.86
2018-12-09T13:49:29.143Z,987.79
2018-12-09T13:50:38.850Z,987.76
2018-12-09T13:51:48.534Z,987.8
2018-12-09T13:53:00.305Z,987.89
2018-12-09T13:54:10.254Z,987.88
2018-12-09T13:55:19.959Z,987.95
2018-12-09T13:56:29.904Z,987.85
2018-12-09T13:57:39.614Z,987.89
2018-12-09T13:58:49.554Z,987.86
2018-12-09T13:59:59.512Z,988.03
2018-12-09T14:01:09.468Z,987.87
2018-12-09T14:02:19.422Z,987.89
2018-12-09T14:03:29.124Z,987.97
2018-12-09T14:04:38.571Z,988
2018-12-09T14:05:48.517Z,987.98
2018-12-09T14:06:57.969Z,988.02
2018-12-09T14:08:07.686Z,988
2018-12-09T14:09:17.389Z,988.04
2018-12-09T14:10:27.344Z,988.04
2018-12-09T14:11:37.329Z,988
2018-12-09T14:12:47.280Z,988.05
2018-12-09T14:13:57.280Z,988.07
2018-12-09T14:15:07.280Z,988.03
2018-12-09T14:16:17.372Z,988.05
2018-12-09T14:17:27.370Z,988.07
2018-12-09T14:18:38.387Z,988.05
2018-12-09T14:19:48.467Z,988.08
2018-12-09T14:20:58.414Z,988.07
2018-12-09T14:22:08.575Z,988.08
2018-12-09T14:23:18.692Z,988
2018-12-09T14:24:28.475Z,988.07
2018-12-09T14:25:38.414Z,988.09
2018-12-09T14:26:48.366Z,987.92
2018-12-09T14:27:57.811Z,988.12
2018-12-09T14:29:07.514Z,987.98
2018-12-09T14:30:17.331Z,988.08
2018-12-09T14:31:27.027Z,988.1
2018-12-09T14:32:37.055Z,988.22
2018-12-09T14:33:47.004Z,988.13
2018-12-09T14:34:56.715Z,988.08
2018-12-09T14:36:06.497Z,988.14